Unken, Austria
Current Conditions -  °F | °C
As of 4:20 AM on Sunday 21 Dec 2014 (Local Time) from LOWS Reporting Station
Rain Showers Rain Showers  
Wind Chill: 30°   Ceiling: 11000
Heat Index: 39°   Visibility: 6mi
Dew Point: 32°   Wind: 16mph
Humidity: 75%   Direction: 280°W
Pressure: 30.33"   Gusts: 32mph
Location:  47.65°N, 12.73°E
Report Text: LOWS 210220Z AUTO 28014G28KT 250V310 9999 -SHRA FEW017 BKN110 04/00 Q1027
Loading
Personal Weather Stations






























Interactive Weather Map New forecast layout! Learn more

10-Day Weather Forecast

Advertisements
Track Severe Weather on mobile